Mirtidiotissa — SX8100 — position and weather

sailwx.info

Track history (hours):
 
Tides and Currents Weather Stations Pressure Air Temp Water Temp Dewpoint Dewpoint Depression Visibility Wind Speed Wind Dir Waves Ship Positions

Mirtidiotissa

Last reported at 2018-Feb-22 04:43 UTC. Time now 2018-Feb-25 10:13 UTC.
Position N 37°20' E 025°46'.

Length 26 m; draft 2.5 m.

Type: Fishing. MMSI: 237418000.

Date/timePositionNaut miles runAvg speedWind from/ knotsBaromVisibWave heightAir tempDewpointWater temp
2018-Feb-22 04:43N 37°20' E 025°46'1 4.0
2018-Feb-22 04:30N 37°19' E 025°46'11 8.6
2018-Feb-22 03:15N 37°22' E 025°33'1 2.2
2018-Feb-22 02:58N 37°22' E 025°32'1 2.9
2018-Feb-22 02:31N 37°21' E 025°30'1 2.9
2018-Feb-22 02:00N 37°21' E 025°28'1 2.5
2018-Feb-22 01:25N 37°22' E 025°27'1 2.6
2018-Feb-22 00:57N 37°23' E 025°27'1 2.8
2018-Feb-22 00:30N 37°23' E 025°29'2 3.2
2018-Feb-21 23:54N 37°24' E 025°31'0 0.1
2018-Feb-21 23:30N 37°24' E 025°31'1 2.9
2018-Feb-21 23:01N 37°23' E 025°30'1 2.9
2018-Feb-21 22:30N 37°23' E 025°28'1 2.9
2018-Feb-21 22:01N 37°22' E 025°26'1 2.8
2018-Feb-21 21:30N 37°22' E 025°25'1 2.9
2018-Feb-21 21:00N 37°22' E 025°23'4 7.4
2018-Feb-21 20:30N 37°18' E 025°22'1010.1
2018-Feb-21 19:32N 37°08' E 025°21'010.3
2018-Feb-21 19:30N 37°08' E 025°21'2 3.2
2018-Feb-21 18:59N 37°06' E 025°22'0 0.0
2018-Feb-21 18:29N 37°06' E 025°22'0 0.0
2018-Feb-21 17:59N 37°06' E 025°22'0 0.0
2018-Feb-21 17:29N 37°06' E 025°22'0 0.0
2018-Feb-21 16:59N 37°06' E 025°22'0 0.0
2018-Feb-21 16:25N 37°06' E 025°22'0 0.0
2018-Feb-21 15:31N 37°06' E 025°22'0 0.0
2018-Feb-21 15:28N 37°06' E 025°22'0 0.0
2018-Feb-21 14:45N 37°06' E 025°22'2 8.1
2018-Feb-21 14:31N 37°06' E 025°20'510.3
2018-Feb-21 14:01N 37°01' E 025°17'15 1.4
2018-Feb-21 03:15N 37°05' E 024°59'1 2.9
2018-Feb-21 03:00N 37°05' E 024°59'1 2.9
2018-Feb-21 02:30N 37°07' E 024°59'2 3.1
2018-Feb-21 02:00N 37°08' E 024°60'1 2.3
2018-Feb-21 01:30N 37°09' E 025°00'1 2.9
2018-Feb-21 01:00N 37°10' E 024°59'1 2.9
2018-Feb-21 00:30N 37°11' E 024°58'1 2.9
2018-Feb-21 00:00N 37°13' E 024°57'1 2.9
2018-Feb-20 23:30N 37°14' E 024°59'1 3.0
2018-Feb-20 23:00N 37°14' E 025°01'6 1.5
2018-Feb-20 18:51N 37°20' E 024°60'1 2.9
2018-Feb-20 18:29N 37°20' E 024°58'1 2.9
2018-Feb-20 18:00N 37°19' E 024°57'1 2.8
2018-Feb-20 17:30N 37°18' E 024°56'2 3.6
2018-Feb-20 17:00N 37°18' E 024°54'5 9.9
2018-Feb-20 16:30N 37°18' E 024°47'1 2.4
2018-Feb-20 15:59N 37°18' E 024°46'3 2.9
2018-Feb-20 14:57N 37°21' E 024°45'1 2.9
2018-Feb-20 14:30N 37°22' E 024°44'1 3.0
2018-Feb-20 14:00N 37°23' E 024°45'2 3.0
2018-Feb-20 13:26N 37°25' E 024°45'1 2.9
2018-Feb-20 13:00N 37°26' E 024°45'1 3.0
2018-Feb-20 12:30N 37°28' E 024°44'75 2.0
2018-Feb-18 23:25N 37°49' E 023°13'410.1
2018-Feb-18 23:00N 37°52' E 023°10'5 9.9
2018-Feb-18 22:30N 37°53' E 023°04'3 6.0
2018-Feb-18 21:59N 37°55' E 023°00'  
2018-Feb-16 02:02N 37°59' E 022°54'110.6
2018-Feb-16 01:59N 37°59' E 022°54'6 9.8
2018-Feb-16 01:21N 37°55' E 023°00'1 4.2
2018-Feb-16 01:00N 37°54' E 023°02'510.3
2018-Feb-16 00:30N 37°53' E 023°08'510.6
2018-Feb-16 00:00N 37°52' E 023°15'610.7
2018-Feb-15 23:29N 37°51' E 023°22'510.5
2018-Feb-15 23:00N 37°51' E 023°28'510.2
2018-Feb-15 22:30N 37°53' E 023°34'510.4
2018-Feb-15 22:00N 37°57' E 023°37'0 0.2
2018-Feb-15 21:30N 37°57' E 023°37'0 0.0
2018-Feb-15 20:59N 37°57' E 023°37'0 0.0
2018-Feb-15 20:28N 37°57' E 023°37'0 0.0
2018-Feb-15 19:58N 37°57' E 023°37'0 0.0
2018-Feb-15 19:27N 37°57' E 023°37'0 0.0
2018-Feb-15 19:00N 37°57' E 023°37'0 0.0
2018-Feb-15 18:29N 37°57' E 023°37'0 0.0
2018-Feb-15 17:59N 37°57' E 023°37'2 5.0
2018-Feb-15 17:30N 37°55' E 023°35'5 9.3
2018-Feb-15 17:00N 37°51' E 023°38'76 2.1
2018-Feb-14 03:56N 37°42' E 025°14'1 3.3
2018-Feb-14 03:30N 37°40' E 025°13'1 0.4
2018-Feb-14 00:12N 37°39' E 025°13'2 9.0
2018-Feb-13 23:57N 37°38' E 025°15'4 8.4
2018-Feb-13 23:29N 37°35' E 025°18'6 8.4
2018-Feb-13 22:48N 37°32' E 025°25'3 8.5
2018-Feb-13 22:28N 37°30' E 025°27'4 8.1
2018-Feb-13 21:54N 37°27' E 025°31'4 9.5
2018-Feb-13 21:30N 37°23' E 025°29'5 9.3
2018-Feb-13 21:00N 37°19' E 025°27'5 9.3
2018-Feb-13 20:30N 37°15' E 025°25'5 9.3
2018-Feb-13 20:00N 37°10' E 025°22'4 7.9
2018-Feb-13 19:30N 37°06' E 025°22'0 0.4
2018-Feb-13 18:59N 37°06' E 025°22'0 0.0
2018-Feb-13 18:29N 37°06' E 025°22'0 0.0
2018-Feb-13 17:59N 37°06' E 025°22'0 0.0
2018-Feb-13 17:29N 37°06' E 025°22'0 0.0
2018-Feb-13 16:59N 37°06' E 025°22'0 0.0
2018-Feb-13 16:29N 37°06' E 025°22'0 0.1
2018-Feb-13 15:58N 37°06' E 025°22'0 0.0
2018-Feb-13 15:28N 37°06' E 025°22'0 0.0
2018-Feb-13 14:58N 37°06' E 025°22'1 2.6
2018-Feb-13 14:30N 37°07' E 025°22'4 7.3
2018-Feb-13 14:00N 37°11' E 025°20'2 4.7
2018-Feb-13 13:30N 37°13' E 025°19'2 3.1
2018-Feb-13 13:01N 37°14' E 025°17'2 3.0
2018-Feb-13 12:26N 37°15' E 025°15'1 2.9
2018-Feb-13 12:00N 37°15' E 025°14'1 2.9
2018-Feb-13 11:31N 37°15' E 025°12'2 3.4
2018-Feb-13 11:00N 37°14' E 025°10'3 5.8
2018-Feb-13 10:29N 37°12' E 025°12'1 2.6
2018-Feb-13 10:00N 37°11' E 025°11'3 3.0
2018-Feb-13 08:54N 37°09' E 025°08'2 2.9
2018-Feb-13 08:11N 37°08' E 025°05'1 6.9
2018-Feb-13 08:00N 37°09' E 025°04'2 3.9
2018-Feb-13 07:30N 37°09' E 025°02'4 2.7
2018-Feb-13 06:06N 37°06' E 024°59'4 1.5
2018-Feb-13 03:45N 37°09' E 025°01'1 3.0
2018-Feb-13 03:30N 37°10' E 025°01'1 2.9
2018-Feb-13 03:01N 37°11' E 024°59'1 2.9
2018-Feb-13 02:31N 37°12' E 024°58'1 2.9
2018-Feb-13 02:00N 37°13' E 024°57'1 1.4
2018-Feb-13 01:30N 37°14' E 024°57'1 2.7
2018-Feb-13 01:00N 37°14' E 024°59'1 2.8
2018-Feb-13 00:30N 37°15' E 025°00'2 2.9
2018-Feb-12 23:53N 37°16' E 025°01'4 2.2
2018-Feb-12 21:55N 37°20' E 024°60'1 2.8
2018-Feb-12 21:31N 37°20' E 024°58'1 2.8
2018-Feb-12 21:00N 37°19' E 024°57'1 2.8
2018-Feb-12 20:31N 37°18' E 024°58'2 3.3
2018-Feb-12 19:59N 37°16' E 024°56'1 2.1
2018-Feb-12 19:31N 37°16' E 024°55'1 2.5
2018-Feb-12 19:01N 37°18' E 024°54'1 2.9
2018-Feb-12 18:31N 37°19' E 024°54'  
Track history (hours):
 
Tides and Currents Weather Stations Pressure Air Temp Water Temp Dewpoint Dewpoint Depression Visibility Wind Speed Wind Dir Waves Ship Positions

Mirtidiotissa

Last reported at 2018-Feb-22 04:43 UTC. Time now 2018-Feb-25 10:13 UTC.
Position N 37°20' E 025°46'.

Length 26 m; draft 2.5 m.

Type: Fishing. MMSI: 237418000.

Date/timePositionNaut miles runAvg speedWind from/ knotsBaromVisibWave heightAir tempDewpointWater temp
2018-Feb-22 04:43N 37°20' E 025°46'1 4.0
2018-Feb-22 04:30N 37°19' E 025°46'11 8.6
2018-Feb-22 03:15N 37°22' E 025°33'1 2.2
2018-Feb-22 02:58N 37°22' E 025°32'1 2.9
2018-Feb-22 02:31N 37°21' E 025°30'1 2.9
2018-Feb-22 02:00N 37°21' E 025°28'1 2.5
2018-Feb-22 01:25N 37°22' E 025°27'1 2.6
2018-Feb-22 00:57N 37°23' E 025°27'1 2.8
2018-Feb-22 00:30N 37°23' E 025°29'2 3.2
2018-Feb-21 23:54N 37°24' E 025°31'0 0.1
2018-Feb-21 23:30N 37°24' E 025°31'1 2.9
2018-Feb-21 23:01N 37°23' E 025°30'1 2.9
2018-Feb-21 22:30N 37°23' E 025°28'1 2.9
2018-Feb-21 22:01N 37°22' E 025°26'1 2.8
2018-Feb-21 21:30N 37°22' E 025°25'1 2.9
2018-Feb-21 21:00N 37°22' E 025°23'4 7.4
2018-Feb-21 20:30N 37°18' E 025°22'1010.1
2018-Feb-21 19:32N 37°08' E 025°21'010.3
2018-Feb-21 19:30N 37°08' E 025°21'2 3.2
2018-Feb-21 18:59N 37°06' E 025°22'0 0.0
2018-Feb-21 18:29N 37°06' E 025°22'0 0.0
2018-Feb-21 17:59N 37°06' E 025°22'0 0.0
2018-Feb-21 17:29N 37°06' E 025°22'0 0.0
2018-Feb-21 16:59N 37°06' E 025°22'0 0.0
2018-Feb-21 16:25N 37°06' E 025°22'0 0.0
2018-Feb-21 15:31N 37°06' E 025°22'0 0.0
2018-Feb-21 15:28N 37°06' E 025°22'0 0.0
2018-Feb-21 14:45N 37°06' E 025°22'2 8.1
2018-Feb-21 14:31N 37°06' E 025°20'510.3
2018-Feb-21 14:01N 37°01' E 025°17'15 1.4
2018-Feb-21 03:15N 37°05' E 024°59'1 2.9
2018-Feb-21 03:00N 37°05' E 024°59'1 2.9
2018-Feb-21 02:30N 37°07' E 024°59'2 3.1
2018-Feb-21 02:00N 37°08' E 024°60'1 2.3
2018-Feb-21 01:30N 37°09' E 025°00'1 2.9
2018-Feb-21 01:00N 37°10' E 024°59'1 2.9
2018-Feb-21 00:30N 37°11' E 024°58'1 2.9
2018-Feb-21 00:00N 37°13' E 024°57'1 2.9
2018-Feb-20 23:30N 37°14' E 024°59'1 3.0
2018-Feb-20 23:00N 37°14' E 025°01'6 1.5
2018-Feb-20 18:51N 37°20' E 024°60'1 2.9
2018-Feb-20 18:29N 37°20' E 024°58'1 2.9
2018-Feb-20 18:00N 37°19' E 024°57'1 2.8
2018-Feb-20 17:30N 37°18' E 024°56'2 3.6
2018-Feb-20 17:00N 37°18' E 024°54'5 9.9
2018-Feb-20 16:30N 37°18' E 024°47'1 2.4
2018-Feb-20 15:59N 37°18' E 024°46'3 2.9
2018-Feb-20 14:57N 37°21' E 024°45'1 2.9
2018-Feb-20 14:30N 37°22' E 024°44'1 3.0
2018-Feb-20 14:00N 37°23' E 024°45'2 3.0
2018-Feb-20 13:26N 37°25' E 024°45'1 2.9
2018-Feb-20 13:00N 37°26' E 024°45'1 3.0
2018-Feb-20 12:30N 37°28' E 024°44'75 2.0
2018-Feb-18 23:25N 37°49' E 023°13'410.1
2018-Feb-18 23:00N 37°52' E 023°10'5 9.9
2018-Feb-18 22:30N 37°53' E 023°04'3 6.0
2018-Feb-18 21:59N 37°55' E 023°00'  
2018-Feb-16 02:02N 37°59' E 022°54'110.6
2018-Feb-16 01:59N 37°59' E 022°54'6 9.8
2018-Feb-16 01:21N 37°55' E 023°00'1 4.2
2018-Feb-16 01:00N 37°54' E 023°02'510.3
2018-Feb-16 00:30N 37°53' E 023°08'510.6
2018-Feb-16 00:00N 37°52' E 023°15'610.7
2018-Feb-15 23:29N 37°51' E 023°22'510.5
2018-Feb-15 23:00N 37°51' E 023°28'510.2
2018-Feb-15 22:30N 37°53' E 023°34'510.4
2018-Feb-15 22:00N 37°57' E 023°37'0 0.2
2018-Feb-15 21:30N 37°57' E 023°37'0 0.0
2018-Feb-15 20:59N 37°57' E 023°37'0 0.0
2018-Feb-15 20:28N 37°57' E 023°37'0 0.0
2018-Feb-15 19:58N 37°57' E 023°37'0 0.0
2018-Feb-15 19:27N 37°57' E 023°37'0 0.0
2018-Feb-15 19:00N 37°57' E 023°37'0 0.0
2018-Feb-15 18:29N 37°57' E 023°37'0 0.0
2018-Feb-15 17:59N 37°57' E 023°37'2 5.0
2018-Feb-15 17:30N 37°55' E 023°35'5 9.3
2018-Feb-15 17:00N 37°51' E 023°38'76 2.1
2018-Feb-14 03:56N 37°42' E 025°14'1 3.3
2018-Feb-14 03:30N 37°40' E 025°13'1 0.4
2018-Feb-14 00:12N 37°39' E 025°13'2 9.0
2018-Feb-13 23:57N 37°38' E 025°15'4 8.4
2018-Feb-13 23:29N 37°35' E 025°18'6 8.4
2018-Feb-13 22:48N 37°32' E 025°25'3 8.5
2018-Feb-13 22:28N 37°30' E 025°27'4 8.1
2018-Feb-13 21:54N 37°27' E 025°31'4 9.5
2018-Feb-13 21:30N 37°23' E 025°29'5 9.3
2018-Feb-13 21:00N 37°19' E 025°27'5 9.3
2018-Feb-13 20:30N 37°15' E 025°25'5 9.3
2018-Feb-13 20:00N 37°10' E 025°22'4 7.9
2018-Feb-13 19:30N 37°06' E 025°22'0 0.4
2018-Feb-13 18:59N 37°06' E 025°22'0 0.0
2018-Feb-13 18:29N 37°06' E 025°22'0 0.0
2018-Feb-13 17:59N 37°06' E 025°22'0 0.0
2018-Feb-13 17:29N 37°06' E 025°22'0 0.0
2018-Feb-13 16:59N 37°06' E 025°22'0 0.0
2018-Feb-13 16:29N 37°06' E 025°22'0 0.1
2018-Feb-13 15:58N 37°06' E 025°22'0 0.0
2018-Feb-13 15:28N 37°06' E 025°22'0 0.0
2018-Feb-13 14:58N 37°06' E 025°22'1 2.6
2018-Feb-13 14:30N 37°07' E 025°22'4 7.3
2018-Feb-13 14:00N 37°11' E 025°20'2 4.7
2018-Feb-13 13:30N 37°13' E 025°19'2 3.1
2018-Feb-13 13:01N 37°14' E 025°17'2 3.0
2018-Feb-13 12:26N 37°15' E 025°15'1 2.9
2018-Feb-13 12:00N 37°15' E 025°14'1 2.9
2018-Feb-13 11:31N 37°15' E 025°12'2 3.4
2018-Feb-13 11:00N 37°14' E 025°10'3 5.8
2018-Feb-13 10:29N 37°12' E 025°12'1 2.6
2018-Feb-13 10:00N 37°11' E 025°11'3 3.0
2018-Feb-13 08:54N 37°09' E 025°08'2 2.9
2018-Feb-13 08:11N 37°08' E 025°05'1 6.9
2018-Feb-13 08:00N 37°09' E 025°04'2 3.9
2018-Feb-13 07:30N 37°09' E 025°02'4 2.7
2018-Feb-13 06:06N 37°06' E 024°59'4 1.5
2018-Feb-13 03:45N 37°09' E 025°01'1 3.0
2018-Feb-13 03:30N 37°10' E 025°01'1 2.9
2018-Feb-13 03:01N 37°11' E 024°59'1 2.9
2018-Feb-13 02:31N 37°12' E 024°58'1 2.9
2018-Feb-13 02:00N 37°13' E 024°57'1 1.4
2018-Feb-13 01:30N 37°14' E 024°57'1 2.7
2018-Feb-13 01:00N 37°14' E 024°59'1 2.8
2018-Feb-13 00:30N 37°15' E 025°00'2 2.9
2018-Feb-12 23:53N 37°16' E 025°01'4 2.2
2018-Feb-12 21:55N 37°20' E 024°60'1 2.8
2018-Feb-12 21:31N 37°20' E 024°58'1 2.8
2018-Feb-12 21:00N 37°19' E 024°57'1 2.8
2018-Feb-12 20:31N 37°18' E 024°58'2 3.3
2018-Feb-12 19:59N 37°16' E 024°56'1 2.1
2018-Feb-12 19:31N 37°16' E 024°55'1 2.5
2018-Feb-12 19:01N 37°18' E 024°54'1 2.9
2018-Feb-12 18:31N 37°19' E 024°54'  

Dump ship's entire track history